Terminal Aerodrome Forecast
Issued by NWS

Home | Current Version | Previous Version | Text Only | Print | Product List | Glossary On
Versions: 1 2 3 4 5 6 7 8 9 10 11 12 13 14 15 16 17 18 19 20
000
FTUS46 KMTR 300913 AAA
TAFSTS
TAF AMD
KSTS 300913Z 3009/3106 15004KT P6SM OVC003
     FM301600 VRB03KT P6SM SCT005
     FM301800 19011KT 6SM HZ FEW100
     FM310300 17004KT 6SM HZ FEW100=

USA.gov is the U.S. government's official web portal to all federal, state and local government web resources and services.